sensor_id;sensor_type;location;lat;lon;timestamp;temperature;humidity
3198;DHT22;1611;49.394;11.136;2024-03-17T00:01:55;7.50;58.70
3198;DHT22;1611;49.394;11.136;2024-03-17T00:04:22;7.40;59.50
3198;DHT22;1611;49.394;11.136;2024-03-17T00:06:49;7.40;59.20
3198;DHT22;1611;49.394;11.136;2024-03-17T00:09:15;7.30;59.50
3198;DHT22;1611;49.394;11.136;2024-03-17T00:11:41;7.20;60.20
3198;DHT22;1611;49.394;11.136;2024-03-17T00:14:08;7.10;59.70
3198;DHT22;1611;49.394;11.136;2024-03-17T00:16:34;7.10;58.60
3198;DHT22;1611;49.394;11.136;2024-03-17T00:19:00;7.10;57.90
3198;DHT22;1611;49.394;11.136;2024-03-17T00:21:26;7.00;57.80
3198;DHT22;1611;49.394;11.136;2024-03-17T00:23:54;7.00;57.70
3198;DHT22;1611;49.394;11.136;2024-03-17T00:26:20;6.90;58.10
3198;DHT22;1611;49.394;11.136;2024-03-17T00:28:47;7.00;58.70
3198;DHT22;1611;49.394;11.136;2024-03-17T00:31:16;6.90;59.40
3198;DHT22;1611;49.394;11.136;2024-03-17T00:33:42;6.80;60.20
3198;DHT22;1611;49.394;11.136;2024-03-17T00:36:09;6.70;60.40
3198;DHT22;1611;49.394;11.136;2024-03-17T00:38:35;6.70;60.90
3198;DHT22;1611;49.394;11.136;2024-03-17T00:41:04;6.60;60.40
3198;DHT22;1611;49.394;11.136;2024-03-17T00:43:30;6.60;60.20
3198;DHT22;1611;49.394;11.136;2024-03-17T00:45:56;6.60;59.80
3198;DHT22;1611;49.394;11.136;2024-03-17T00:48:23;6.50;59.70
3198;DHT22;1611;49.394;11.136;2024-03-17T00:50:55;6.50;60.00
3198;DHT22;1611;49.394;11.136;2024-03-17T00:53:21;6.60;60.00
3198;DHT22;1611;49.394;11.136;2024-03-17T00:55:51;6.60;59.40
3198;DHT22;1611;49.394;11.136;2024-03-17T00:58:18;6.60;59.40
3198;DHT22;1611;49.394;11.136;2024-03-17T01:00:45;6.60;59.90
3198;DHT22;1611;49.394;11.136;2024-03-17T01:03:13;6.70;60.00
3198;DHT22;1611;49.394;11.136;2024-03-17T01:05:40;6.70;60.50
3198;DHT22;1611;49.394;11.136;2024-03-17T01:08:07;6.70;60.50
3198;DHT22;1611;49.394;11.136;2024-03-17T01:10:37;6.70;60.80
3198;DHT22;1611;49.394;11.136;2024-03-17T01:13:03;6.80;60.60
3198;DHT22;1611;49.394;11.136;2024-03-17T01:15:31;6.80;59.90
3198;DHT22;1611;49.394;11.136;2024-03-17T01:17:56;6.80;59.70
3198;DHT22;1611;49.394;11.136;2024-03-17T01:20:23;6.80;59.50
3198;DHT22;1611;49.394;11.136;2024-03-17T01:22:49;6.80;61.00
3198;DHT22;1611;49.394;11.136;2024-03-17T01:25:15;6.90;61.10
3198;DHT22;1611;49.394;11.136;2024-03-17T01:27:41;6.80;61.20
3198;DHT22;1611;49.394;11.136;2024-03-17T01:30:09;6.80;61.10
3198;DHT22;1611;49.394;11.136;2024-03-17T01:32:36;6.90;60.80
3198;DHT22;1611;49.394;11.136;2024-03-17T01:35:04;6.90;60.70
3198;DHT22;1611;49.394;11.136;2024-03-17T01:37:31;7.00;60.60
3198;DHT22;1611;49.394;11.136;2024-03-17T01:39:58;7.00;60.70
3198;DHT22;1611;49.394;11.136;2024-03-17T01:42:24;7.00;61.20
3198;DHT22;1611;49.394;11.136;2024-03-17T01:44:50;7.00;61.10
3198;DHT22;1611;49.394;11.136;2024-03-17T01:47:16;7.00;60.80
3198;DHT22;1611;49.394;11.136;2024-03-17T01:49:45;7.00;60.70
3198;DHT22;1611;49.394;11.136;2024-03-17T01:52:11;6.90;60.10
3198;DHT22;1611;49.394;11.136;2024-03-17T01:54:38;6.80;59.90
3198;DHT22;1611;49.394;11.136;2024-03-17T01:57:04;6.80;60.60
3198;DHT22;1611;49.394;11.136;2024-03-17T01:59:31;6.70;60.10
3198;DHT22;1611;49.394;11.136;2024-03-17T02:01:56;6.70;60.10
3198;DHT22;1611;49.394;11.136;2024-03-17T02:04:23;6.60;59.40
3198;DHT22;1611;49.394;11.136;2024-03-17T02:06:50;6.70;59.80
3198;DHT22;1611;49.394;11.136;2024-03-17T02:09:17;6.70;59.80
3198;DHT22;1611;49.394;11.136;2024-03-17T02:11:45;6.70;59.80
3198;DHT22;1611;49.394;11.136;2024-03-17T02:14:11;6.60;60.20
3198;DHT22;1611;49.394;11.136;2024-03-17T02:16:39;6.60;60.90
3198;DHT22;1611;49.394;11.136;2024-03-17T02:19:05;6.70;60.30
3198;DHT22;1611;49.394;11.136;2024-03-17T02:21:32;6.60;60.90
3198;DHT22;1611;49.394;11.136;2024-03-17T02:23:59;6.50;60.50
3198;DHT22;1611;49.394;11.136;2024-03-17T02:26:26;6.40;60.60
3198;DHT22;1611;49.394;11.136;2024-03-17T02:28:52;6.30;60.90
3198;DHT22;1611;49.394;11.136;2024-03-17T02:31:19;6.20;61.30
3198;DHT22;1611;49.394;11.136;2024-03-17T02:33:45;6.10;62.00
3198;DHT22;1611;49.394;11.136;2024-03-17T02:36:12;6.10;62.90
3198;DHT22;1611;49.394;11.136;2024-03-17T02:38:39;6.00;62.00
3198;DHT22;1611;49.394;11.136;2024-03-17T02:41:32;6.00;61.70
3198;DHT22;1611;49.394;11.136;2024-03-17T02:43:59;5.90;62.00
3198;DHT22;1611;49.394;11.136;2024-03-17T02:46:26;5.80;63.10
3198;DHT22;1611;49.394;11.136;2024-03-17T02:48:53;5.70;63.80
3198;DHT22;1611;49.394;11.136;2024-03-17T02:51:22;5.60;64.00
3198;DHT22;1611;49.394;11.136;2024-03-17T02:53:50;5.40;64.60
3198;DHT22;1611;49.394;11.136;2024-03-17T02:56:18;5.30;65.60
3198;DHT22;1611;49.394;11.136;2024-03-17T02:58:46;5.30;65.60
3198;DHT22;1611;49.394;11.136;2024-03-17T03:01:13;5.30;65.80
3198;DHT22;1611;49.394;11.136;2024-03-17T03:03:41;5.30;66.60
3198;DHT22;1611;49.394;11.136;2024-03-17T03:06:08;5.20;66.70
3198;DHT22;1611;49.394;11.136;2024-03-17T03:08:37;5.30;66.80
3198;DHT22;1611;49.394;11.136;2024-03-17T03:11:06;5.20;66.80
3198;DHT22;1611;49.394;11.136;2024-03-17T03:13:36;5.20;67.10
3198;DHT22;1611;49.394;11.136;2024-03-17T03:16:05;5.20;67.20
3198;DHT22;1611;49.394;11.136;2024-03-17T03:18:31;5.20;67.30
3198;DHT22;1611;49.394;11.136;2024-03-17T03:20:59;5.20;67.40
3198;DHT22;1611;49.394;11.136;2024-03-17T03:23:25;5.10;67.70
3198;DHT22;1611;49.394;11.136;2024-03-17T03:25:55;5.20;67.70
3198;DHT22;1611;49.394;11.136;2024-03-17T03:28:22;5.10;67.60
3198;DHT22;1611;49.394;11.136;2024-03-17T03:30:49;5.20;67.70
3198;DHT22;1611;49.394;11.136;2024-03-17T03:33:18;5.20;67.50
3198;DHT22;1611;49.394;11.136;2024-03-17T03:35:44;5.10;67.10
3198;DHT22;1611;49.394;11.136;2024-03-17T03:38:12;5.20;67.40
3198;DHT22;1611;49.394;11.136;2024-03-17T03:40:39;5.10;67.80
3198;DHT22;1611;49.394;11.136;2024-03-17T03:43:05;5.10;68.40
3198;DHT22;1611;49.394;11.136;2024-03-17T03:45:33;5.10;68.50
3198;DHT22;1611;49.394;11.136;2024-03-17T03:48:00;5.30;69.10
3198;DHT22;1611;49.394;11.136;2024-03-17T03:50:30;5.20;68.80
3198;DHT22;1611;49.394;11.136;2024-03-17T03:52:56;5.20;68.60
3198;DHT22;1611;49.394;11.136;2024-03-17T03:55:23;5.30;69.50
3198;DHT22;1611;49.394;11.136;2024-03-17T03:57:50;5.40;69.70
3198;DHT22;1611;49.394;11.136;2024-03-17T04:00:18;5.40;69.60
3198;DHT22;1611;49.394;11.136;2024-03-17T04:02:48;5.40;69.20
3198;DHT22;1611;49.394;11.136;2024-03-17T04:05:15;5.50;68.90
3198;DHT22;1611;49.394;11.136;2024-03-17T04:07:43;5.50;68.40
3198;DHT22;1611;49.394;11.136;2024-03-17T04:10:11;5.50;68.70
3198;DHT22;1611;49.394;11.136;2024-03-17T04:12:38;5.50;69.20
3198;DHT22;1611;49.394;11.136;2024-03-17T04:15:06;5.60;69.30
3198;DHT22;1611;49.394;11.136;2024-03-17T04:17:35;5.60;69.40
3198;DHT22;1611;49.394;11.136;2024-03-17T04:20:03;5.70;69.60
3198;DHT22;1611;49.394;11.136;2024-03-17T04:22:33;5.70;69.30
3198;DHT22;1611;49.394;11.136;2024-03-17T04:25:01;5.70;69.00
3198;DHT22;1611;49.394;11.136;2024-03-17T04:27:29;5.70;69.00
3198;DHT22;1611;49.394;11.136;2024-03-17T04:29:57;5.70;69.10
3198;DHT22;1611;49.394;11.136;2024-03-17T04:32:25;5.70;69.30
3198;DHT22;1611;49.394;11.136;2024-03-17T04:34:52;5.80;69.30
3198;DHT22;1611;49.394;11.136;2024-03-17T04:37:19;5.80;68.90
3198;DHT22;1611;49.394;11.136;2024-03-17T04:39:46;5.80;68.60
3198;DHT22;1611;49.394;11.136;2024-03-17T04:42:16;5.90;68.50
3198;DHT22;1611;49.394;11.136;2024-03-17T04:44:43;6.00;68.10
3198;DHT22;1611;49.394;11.136;2024-03-17T04:47:10;6.00;67.70
3198;DHT22;1611;49.394;11.136;2024-03-17T04:49:38;6.00;67.50
3198;DHT22;1611;49.394;11.136;2024-03-17T04:52:05;6.00;67.50
3198;DHT22;1611;49.394;11.136;2024-03-17T04:54:32;6.00;67.20
3198;DHT22;1611;49.394;11.136;2024-03-17T04:56:59;6.00;67.40
3198;DHT22;1611;49.394;11.136;2024-03-17T04:59:27;6.00;67.30
3198;DHT22;1611;49.394;11.136;2024-03-17T05:01:54;6.00;67.40
3198;DHT22;1611;49.394;11.136;2024-03-17T05:04:21;6.00;67.60
3198;DHT22;1611;49.394;11.136;2024-03-17T05:06:48;6.00;67.40
3198;DHT22;1611;49.394;11.136;2024-03-17T05:09:16;6.10;67.10
3198;DHT22;1611;49.394;11.136;2024-03-17T05:11:43;6.10;67.00
3198;DHT22;1611;49.394;11.136;2024-03-17T05:14:11;6.10;66.60
3198;DHT22;1611;49.394;11.136;2024-03-17T05:16:39;6.10;67.00
3198;DHT22;1611;49.394;11.136;2024-03-17T05:19:06;6.10;67.20
3198;DHT22;1611;49.394;11.136;2024-03-17T05:21:34;6.10;66.90
3198;DHT22;1611;49.394;11.136;2024-03-17T05:24:02;6.10;67.00
3198;DHT22;1611;49.394;11.136;2024-03-17T05:26:29;6.10;66.70
3198;DHT22;1611;49.394;11.136;2024-03-17T05:28:57;6.10;67.20
3198;DHT22;1611;49.394;11.136;2024-03-17T05:31:23;6.00;67.20
3198;DHT22;1611;49.394;11.136;2024-03-17T05:33:51;6.10;67.40
3198;DHT22;1611;49.394;11.136;2024-03-17T05:36:18;6.00;67.40
3198;DHT22;1611;49.394;11.136;2024-03-17T05:38:50;6.10;68.20
3198;DHT22;1611;49.394;11.136;2024-03-17T05:41:17;6.20;68.10
3198;DHT22;1611;49.394;11.136;2024-03-17T05:43:43;6.20;67.60
3198;DHT22;1611;49.394;11.136;2024-03-17T05:46:12;6.10;67.10
3198;DHT22;1611;49.394;11.136;2024-03-17T05:48:40;6.30;66.80
3198;DHT22;1611;49.394;11.136;2024-03-17T05:51:09;6.20;66.90
3198;DHT22;1611;49.394;11.136;2024-03-17T05:53:36;6.20;67.30
3198;DHT22;1611;49.394;11.136;2024-03-17T05:56:06;6.20;67.50
3198;DHT22;1611;49.394;11.136;2024-03-17T05:58:34;6.20;68.10
3198;DHT22;1611;49.394;11.136;2024-03-17T06:01:06;6.20;68.30
3198;DHT22;1611;49.394;11.136;2024-03-17T06:03:33;6.30;68.10
3198;DHT22;1611;49.394;11.136;2024-03-17T06:06:01;6.40;67.80
3198;DHT22;1611;49.394;11.136;2024-03-17T06:08:30;6.40;67.70
3198;DHT22;1611;49.394;11.136;2024-03-17T06:10:57;6.40;67.20
3198;DHT22;1611;49.394;11.136;2024-03-17T06:13:25;6.50;66.90
3198;DHT22;1611;49.394;11.136;2024-03-17T06:15:52;6.50;67.00
3198;DHT22;1611;49.394;11.136;2024-03-17T06:18:19;6.50;67.00
3198;DHT22;1611;49.394;11.136;2024-03-17T06:20:46;6.50;67.30
3198;DHT22;1611;49.394;11.136;2024-03-17T06:23:14;6.60;67.50
3198;DHT22;1611;49.394;11.136;2024-03-17T06:25:44;6.60;67.70
3198;DHT22;1611;49.394;11.136;2024-03-17T06:28:12;6.60;67.60
3198;DHT22;1611;49.394;11.136;2024-03-17T06:30:39;6.80;67.40
3198;DHT22;1611;49.394;11.136;2024-03-17T06:33:06;6.80;67.00
3198;DHT22;1611;49.394;11.136;2024-03-17T06:35:36;6.90;66.80
3198;DHT22;1611;49.394;11.136;2024-03-17T06:38:03;7.00;66.80
3198;DHT22;1611;49.394;11.136;2024-03-17T06:40:30;7.00;66.60
3198;DHT22;1611;49.394;11.136;2024-03-17T06:42:58;7.10;66.10
3198;DHT22;1611;49.394;11.136;2024-03-17T06:45:25;7.30;65.40
3198;DHT22;1611;49.394;11.136;2024-03-17T06:47:51;7.30;64.90
3198;DHT22;1611;49.394;11.136;2024-03-17T06:50:18;7.40;65.00
3198;DHT22;1611;49.394;11.136;2024-03-17T06:52:45;7.60;64.90
3198;DHT22;1611;49.394;11.136;2024-03-17T06:55:11;7.50;64.00
3198;DHT22;1611;49.394;11.136;2024-03-17T06:57:41;7.70;64.20
3198;DHT22;1611;49.394;11.136;2024-03-17T07:00:12;7.80;63.50
3198;DHT22;1611;49.394;11.136;2024-03-17T07:02:40;7.90;62.70
3198;DHT22;1611;49.394;11.136;2024-03-17T07:05:11;7.90;62.80
3198;DHT22;1611;49.394;11.136;2024-03-17T07:07:39;8.00;62.50
3198;DHT22;1611;49.394;11.136;2024-03-17T07:10:07;8.30;66.50
3198;DHT22;1611;49.394;11.136;2024-03-17T07:12:34;8.50;68.10
3198;DHT22;1611;49.394;11.136;2024-03-17T07:15:01;8.60;68.10
3198;DHT22;1611;49.394;11.136;2024-03-17T07:17:29;8.80;64.10
3198;DHT22;1611;49.394;11.136;2024-03-17T07:19:55;9.00;65.10
3198;DHT22;1611;49.394;11.136;2024-03-17T07:22:22;9.00;59.00
3198;DHT22;1611;49.394;11.136;2024-03-17T07:24:51;9.20;57.50
3198;DHT22;1611;49.394;11.136;2024-03-17T07:27:21;9.20;57.30
3198;DHT22;1611;49.394;11.136;2024-03-17T07:29:48;9.20;56.80
3198;DHT22;1611;49.394;11.136;2024-03-17T07:32:15;9.30;56.90
3198;DHT22;1611;49.394;11.136;2024-03-17T07:34:43;9.40;55.80
3198;DHT22;1611;49.394;11.136;2024-03-17T07:37:09;9.40;55.50
3198;DHT22;1611;49.394;11.136;2024-03-17T07:39:36;9.50;54.50
3198;DHT22;1611;49.394;11.136;2024-03-17T07:42:03;9.50;54.80
3198;DHT22;1611;49.394;11.136;2024-03-17T07:44:29;9.50;55.20
3198;DHT22;1611;49.394;11.136;2024-03-17T07:46:59;9.60;55.20
3198;DHT22;1611;49.394;11.136;2024-03-17T07:49:26;9.80;55.10
3198;DHT22;1611;49.394;11.136;2024-03-17T07:51:54;10.00;53.80
3198;DHT22;1611;49.394;11.136;2024-03-17T07:54:23;10.00;52.10
3198;DHT22;1611;49.394;11.136;2024-03-17T07:56:49;10.10;52.50
3198;DHT22;1611;49.394;11.136;2024-03-17T07:59:16;10.20;52.10
3198;DHT22;1611;49.394;11.136;2024-03-17T08:01:43;10.30;51.80
3198;DHT22;1611;49.394;11.136;2024-03-17T08:04:10;10.40;50.00
3198;DHT22;1611;49.394;11.136;2024-03-17T08:06:38;10.40;50.20
3198;DHT22;1611;49.394;11.136;2024-03-17T08:09:06;10.30;50.10
3198;DHT22;1611;49.394;11.136;2024-03-17T08:11:33;10.30;49.80
3198;DHT22;1611;49.394;11.136;2024-03-17T08:14:00;10.30;50.00
3198;DHT22;1611;49.394;11.136;2024-03-17T08:16:27;10.20;49.60
3198;DHT22;1611;49.394;11.136;2024-03-17T08:18:54;10.20;50.30
3198;DHT22;1611;49.394;11.136;2024-03-17T08:21:21;10.30;49.90
3198;DHT22;1611;49.394;11.136;2024-03-17T08:23:48;10.30;50.00
3198;DHT22;1611;49.394;11.136;2024-03-17T08:26:16;10.40;50.30
3198;DHT22;1611;49.394;11.136;2024-03-17T08:28:42;10.60;49.50
3198;DHT22;1611;49.394;11.136;2024-03-17T08:31:09;10.60;46.20
3198;DHT22;1611;49.394;11.136;2024-03-17T08:33:36;10.60;45.10
3198;DHT22;1611;49.394;11.136;2024-03-17T08:36:04;10.60;41.80
3198;DHT22;1611;49.394;11.136;2024-03-17T08:38:33;10.60;43.00
3198;DHT22;1611;49.394;11.136;2024-03-17T08:41:02;10.60;42.10
3198;DHT22;1611;49.394;11.136;2024-03-17T08:43:31;10.80;42.90
3198;DHT22;1611;49.394;11.136;2024-03-17T08:45:59;11.00;44.10
3198;DHT22;1611;49.394;11.136;2024-03-17T08:48:28;11.00;43.00
3198;DHT22;1611;49.394;11.136;2024-03-17T08:50:56;11.20;43.50
3198;DHT22;1611;49.394;11.136;2024-03-17T08:53:24;11.20;42.20
3198;DHT22;1611;49.394;11.136;2024-03-17T08:55:51;11.20;46.10
3198;DHT22;1611;49.394;11.136;2024-03-17T08:58:17;11.20;41.80
3198;DHT22;1611;49.394;11.136;2024-03-17T09:00:45;11.20;42.30
3198;DHT22;1611;49.394;11.136;2024-03-17T09:03:12;11.20;43.10
3198;DHT22;1611;49.394;11.136;2024-03-17T09:05:42;11.30;40.40
3198;DHT22;1611;49.394;11.136;2024-03-17T09:08:14;11.40;39.80
3198;DHT22;1611;49.394;11.136;2024-03-17T09:10:41;11.50;39.90
3198;DHT22;1611;49.394;11.136;2024-03-17T09:13:12;11.60;36.00
3198;DHT22;1611;49.394;11.136;2024-03-17T09:15:39;11.80;35.30
3198;DHT22;1611;49.394;11.136;2024-03-17T09:18:07;11.70;35.60
3198;DHT22;1611;49.394;11.136;2024-03-17T09:20:34;11.90;36.90
3198;DHT22;1611;49.394;11.136;2024-03-17T09:23:00;12.00;35.00
3198;DHT22;1611;49.394;11.136;2024-03-17T09:25:27;12.00;34.30
3198;DHT22;1611;49.394;11.136;2024-03-17T09:27:55;12.00;32.40
3198;DHT22;1611;49.394;11.136;2024-03-17T09:30:22;12.20;34.80
3198;DHT22;1611;49.394;11.136;2024-03-17T09:32:48;12.40;34.90
3198;DHT22;1611;49.394;11.136;2024-03-17T09:35:16;12.50;37.00
3198;DHT22;1611;49.394;11.136;2024-03-17T09:37:43;12.80;37.00
3198;DHT22;1611;49.394;11.136;2024-03-17T09:40:13;13.10;37.60
3198;DHT22;1611;49.394;11.136;2024-03-17T09:42:41;13.10;32.70
3198;DHT22;1611;49.394;11.136;2024-03-17T09:45:09;13.30;32.90
3198;DHT22;1611;49.394;11.136;2024-03-17T09:47:36;13.50;33.50
3198;DHT22;1611;49.394;11.136;2024-03-17T09:50:05;13.50;31.70
3198;DHT22;1611;49.394;11.136;2024-03-17T09:52:35;13.50;30.70
3198;DHT22;1611;49.394;11.136;2024-03-17T09:55:09;13.60;30.70
3198;DHT22;1611;49.394;11.136;2024-03-17T09:57:36;13.80;30.60
3198;DHT22;1611;49.394;11.136;2024-03-17T10:00:06;14.00;30.90
3198;DHT22;1611;49.394;11.136;2024-03-17T10:02:42;14.20;30.40
3198;DHT22;1611;49.394;11.136;2024-03-17T10:05:18;14.30;30.00
3198;DHT22;1611;49.394;11.136;2024-03-17T10:07:46;14.30;27.40
3198;DHT22;1611;49.394;11.136;2024-03-17T10:10:13;14.50;28.90
3198;DHT22;1611;49.394;11.136;2024-03-17T10:12:42;14.70;28.20
3198;DHT22;1611;49.394;11.136;2024-03-17T10:15:11;14.50;26.40
3198;DHT22;1611;49.394;11.136;2024-03-17T10:17:38;14.30;28.40
3198;DHT22;1611;49.394;11.136;2024-03-17T10:20:11;14.70;25.10
3198;DHT22;1611;49.394;11.136;2024-03-17T10:22:49;15.40;23.70
3198;DHT22;1611;49.394;11.136;2024-03-17T10:25:25;15.30;21.70
3198;DHT22;1611;49.394;11.136;2024-03-17T10:27:52;15.00;21.50
3198;DHT22;1611;49.394;11.136;2024-03-17T10:30:19;15.70;22.90
3198;DHT22;1611;49.394;11.136;2024-03-17T10:32:52;15.80;20.60
3198;DHT22;1611;49.394;11.136;2024-03-17T10:35:33;15.60;24.90
3198;DHT22;1611;49.394;11.136;2024-03-17T10:38:01;16.00;23.60
3198;DHT22;1611;49.394;11.136;2024-03-17T10:40:31;16.20;20.90
3198;DHT22;1611;49.394;11.136;2024-03-17T10:43:00;16.00;20.30
3198;DHT22;1611;49.394;11.136;2024-03-17T10:45:27;15.40;22.20
3198;DHT22;1611;49.394;11.136;2024-03-17T10:47:59;15.50;23.00
3198;DHT22;1611;49.394;11.136;2024-03-17T10:50:29;15.40;23.20
3198;DHT22;1611;49.394;11.136;2024-03-17T10:53:01;15.30;22.90
3198;DHT22;1611;49.394;11.136;2024-03-17T10:55:32;15.40;24.20
3198;DHT22;1611;49.394;11.136;2024-03-17T10:58:21;15.80;24.10
3198;DHT22;1611;49.394;11.136;2024-03-17T11:00:50;16.50;25.50
3198;DHT22;1611;49.394;11.136;2024-03-17T11:03:18;17.00;18.90
3198;DHT22;1611;49.394;11.136;2024-03-17T11:05:47;17.50;19.50
3198;DHT22;1611;49.394;11.136;2024-03-17T11:08:16;18.40;19.00
3198;DHT22;1611;49.394;11.136;2024-03-17T11:10:51;19.20;17.60
3198;DHT22;1611;49.394;11.136;2024-03-17T11:13:23;19.40;17.30
3198;DHT22;1611;49.394;11.136;2024-03-17T11:15:51;19.00;17.10
3198;DHT22;1611;49.394;11.136;2024-03-17T11:18:43;18.90;16.80
3198;DHT22;1611;49.394;11.136;2024-03-17T11:21:22;19.20;16.70
3198;DHT22;1611;49.394;11.136;2024-03-17T11:24:01;19.50;15.90
3198;DHT22;1611;49.394;11.136;2024-03-17T11:26:32;19.50;15.70
3198;DHT22;1611;49.394;11.136;2024-03-17T11:28:59;19.00;16.10
3198;DHT22;1611;49.394;11.136;2024-03-17T11:31:40;20.30;16.10
3198;DHT22;1611;49.394;11.136;2024-03-17T11:36:50;20.60;13.20
3198;DHT22;1611;49.394;11.136;2024-03-17T11:39:16;20.60;13.50
3198;DHT22;1611;49.394;11.136;2024-03-17T11:41:48;21.70;13.30
3198;DHT22;1611;49.394;11.136;2024-03-17T11:44:15;22.00;12.20
3198;DHT22;1611;49.394;11.136;2024-03-17T11:46:44;22.50;12.10
3198;DHT22;1611;49.394;11.136;2024-03-17T11:49:18;23.50;10.30
3198;DHT22;1611;49.394;11.136;2024-03-17T11:51:46;24.10;8.60
3198;DHT22;1611;49.394;11.136;2024-03-17T11:54:14;24.80;8.30
3198;DHT22;1611;49.394;11.136;2024-03-17T11:56:44;25.60;7.40
3198;DHT22;1611;49.394;11.136;2024-03-17T11:59:12;26.50;7.50
3198;DHT22;1611;49.394;11.136;2024-03-17T12:01:39;27.90;5.50
3198;DHT22;1611;49.394;11.136;2024-03-17T12:04:05;28.90;4.70
3198;DHT22;1611;49.394;11.136;2024-03-17T12:06:33;29.50;4.00
3198;DHT22;1611;49.394;11.136;2024-03-17T12:09:09;29.20;2.90
3198;DHT22;1611;49.394;11.136;2024-03-17T12:11:36;29.40;3.20
3198;DHT22;1611;49.394;11.136;2024-03-17T12:14:18;28.80;2.00
3198;DHT22;1611;49.394;11.136;2024-03-17T12:16:49;26.80;4.30
3198;DHT22;1611;49.394;11.136;2024-03-17T12:19:17;25.80;5.60
3198;DHT22;1611;49.394;11.136;2024-03-17T12:21:45;25.10;6.90
3198;DHT22;1611;49.394;11.136;2024-03-17T12:24:15;24.10;7.70
3198;DHT22;1611;49.394;11.136;2024-03-17T12:26:43;23.20;9.10
3198;DHT22;1611;49.394;11.136;2024-03-17T12:29:24;22.80;10.00
3198;DHT22;1611;49.394;11.136;2024-03-17T12:31:53;22.60;10.60
3198;DHT22;1611;49.394;11.136;2024-03-17T12:34:20;22.10;11.40
3198;DHT22;1611;49.394;11.136;2024-03-17T12:36:47;21.50;11.70
3198;DHT22;1611;49.394;11.136;2024-03-17T12:39:18;20.50;13.60
3198;DHT22;1611;49.394;11.136;2024-03-17T12:42:00;20.00;16.00
3198;DHT22;1611;49.394;11.136;2024-03-17T12:44:28;19.60;16.60
3198;DHT22;1611;49.394;11.136;2024-03-17T12:46:56;19.20;17.50
3198;DHT22;1611;49.394;11.136;2024-03-17T12:49:22;19.10;15.60
3198;DHT22;1611;49.394;11.136;2024-03-17T12:51:50;19.10;15.90
3198;DHT22;1611;49.394;11.136;2024-03-17T12:54:20;19.00;16.20
3198;DHT22;1611;49.394;11.136;2024-03-17T12:56:46;19.60;15.60
3198;DHT22;1611;49.394;11.136;2024-03-17T12:59:39;20.30;14.30
3198;DHT22;1611;49.394;11.136;2024-03-17T13:02:24;20.00;14.00
3198;DHT22;1611;49.394;11.136;2024-03-17T13:05:15;19.80;15.00
3198;DHT22;1611;49.394;11.136;2024-03-17T13:07:43;19.60;15.40
3198;DHT22;1611;49.394;11.136;2024-03-17T13:10:12;19.50;14.90
3198;DHT22;1611;49.394;11.136;2024-03-17T13:12:39;19.40;15.70
3198;DHT22;1611;49.394;11.136;2024-03-17T13:15:09;18.60;15.30
3198;DHT22;1611;49.394;11.136;2024-03-17T13:17:36;18.10;17.50
3198;DHT22;1611;49.394;11.136;2024-03-17T13:20:03;17.90;17.50
3198;DHT22;1611;49.394;11.136;2024-03-17T13:22:34;17.60;18.10
3198;DHT22;1611;49.394;11.136;2024-03-17T13:25:00;17.60;18.50
3198;DHT22;1611;49.394;11.136;2024-03-17T13:27:27;17.50;18.00
3198;DHT22;1611;49.394;11.136;2024-03-17T13:29:54;17.40;18.20
3198;DHT22;1611;49.394;11.136;2024-03-17T13:32:22;17.30;19.30
3198;DHT22;1611;49.394;11.136;2024-03-17T13:34:49;17.70;19.40
3198;DHT22;1611;49.394;11.136;2024-03-17T13:37:16;18.00;18.00
3198;DHT22;1611;49.394;11.136;2024-03-17T13:39:43;18.00;17.80
3198;DHT22;1611;49.394;11.136;2024-03-17T13:42:10;17.90;18.90
3198;DHT22;1611;49.394;11.136;2024-03-17T13:44:36;17.80;18.70
3198;DHT22;1611;49.394;11.136;2024-03-17T13:47:03;17.40;18.90
3198;DHT22;1611;49.394;11.136;2024-03-17T13:49:31;17.30;19.70
3198;DHT22;1611;49.394;11.136;2024-03-17T13:51:59;17.40;19.60
3198;DHT22;1611;49.394;11.136;2024-03-17T13:54:25;17.60;18.60
3198;DHT22;1611;49.394;11.136;2024-03-17T13:56:53;17.80;19.10
3198;DHT22;1611;49.394;11.136;2024-03-17T13:59:20;17.70;18.80
3198;DHT22;1611;49.394;11.136;2024-03-17T14:01:47;17.60;18.70
3198;DHT22;1611;49.394;11.136;2024-03-17T14:04:15;17.90;18.70
3198;DHT22;1611;49.394;11.136;2024-03-17T14:06:45;17.80;18.30
3198;DHT22;1611;49.394;11.136;2024-03-17T14:09:12;17.90;19.30
3198;DHT22;1611;49.394;11.136;2024-03-17T14:11:38;17.90;18.00
3198;DHT22;1611;49.394;11.136;2024-03-17T14:14:05;17.40;18.40
3198;DHT22;1611;49.394;11.136;2024-03-17T14:16:33;17.50;19.20
3198;DHT22;1611;49.394;11.136;2024-03-17T14:19:00;17.50;19.30
3198;DHT22;1611;49.394;11.136;2024-03-17T14:21:27;17.70;19.10
3198;DHT22;1611;49.394;11.136;2024-03-17T14:23:56;17.60;18.70
3198;DHT22;1611;49.394;11.136;2024-03-17T14:26:22;17.40;19.00
3198;DHT22;1611;49.394;11.136;2024-03-17T14:28:49;17.40;19.00
3198;DHT22;1611;49.394;11.136;2024-03-17T14:31:17;17.10;19.40
3198;DHT22;1611;49.394;11.136;2024-03-17T14:33:43;16.80;20.10
3198;DHT22;1611;49.394;11.136;2024-03-17T14:36:10;16.60;19.70
3198;DHT22;1611;49.394;11.136;2024-03-17T14:38:37;16.30;20.80
3198;DHT22;1611;49.394;11.136;2024-03-17T14:41:05;16.10;21.00
3198;DHT22;1611;49.394;11.136;2024-03-17T14:43:32;16.10;21.80
3198;DHT22;1611;49.394;11.136;2024-03-17T14:46:03;16.00;21.20
3198;DHT22;1611;49.394;11.136;2024-03-17T14:48:30;15.90;20.50
3198;DHT22;1611;49.394;11.136;2024-03-17T14:50:56;15.70;22.00
3198;DHT22;1611;49.394;11.136;2024-03-17T14:53:22;15.70;23.30
3198;DHT22;1611;49.394;11.136;2024-03-17T14:55:49;15.80;23.50
3198;DHT22;1611;49.394;11.136;2024-03-17T14:58:17;15.80;23.70
3198;DHT22;1611;49.394;11.136;2024-03-17T15:00:43;15.60;21.70
3198;DHT22;1611;49.394;11.136;2024-03-17T15:03:11;15.50;22.40
3198;DHT22;1611;49.394;11.136;2024-03-17T15:05:39;15.60;23.70
3198;DHT22;1611;49.394;11.136;2024-03-17T15:08:06;15.50;22.60
3198;DHT22;1611;49.394;11.136;2024-03-17T15:10:35;15.30;22.90
3198;DHT22;1611;49.394;11.136;2024-03-17T15:13:01;15.40;23.10
3198;DHT22;1611;49.394;11.136;2024-03-17T15:15:29;15.30;23.20
3198;DHT22;1611;49.394;11.136;2024-03-17T15:17:56;15.30;24.10
3198;DHT22;1611;49.394;11.136;2024-03-17T15:20:23;15.20;23.80
3198;DHT22;1611;49.394;11.136;2024-03-17T15:22:50;15.20;24.20
3198;DHT22;1611;49.394;11.136;2024-03-17T15:25:17;15.20;24.10
3198;DHT22;1611;49.394;11.136;2024-03-17T15:27:45;15.20;24.00
3198;DHT22;1611;49.394;11.136;2024-03-17T15:30:13;15.20;24.00
3198;DHT22;1611;49.394;11.136;2024-03-17T15:32:42;15.20;24.40
3198;DHT22;1611;49.394;11.136;2024-03-17T15:35:10;15.20;25.10
3198;DHT22;1611;49.394;11.136;2024-03-17T15:37:38;15.30;25.00
3198;DHT22;1611;49.394;11.136;2024-03-17T15:40:05;15.30;25.00
3198;DHT22;1611;49.394;11.136;2024-03-17T15:42:32;15.20;25.30
3198;DHT22;1611;49.394;11.136;2024-03-17T15:44:59;15.20;26.10
3198;DHT22;1611;49.394;11.136;2024-03-17T15:47:26;15.10;28.30
3198;DHT22;1611;49.394;11.136;2024-03-17T15:49:54;15.10;29.90
3198;DHT22;1611;49.394;11.136;2024-03-17T15:52:20;14.90;24.50
3198;DHT22;1611;49.394;11.136;2024-03-17T15:54:47;14.90;24.90
3198;DHT22;1611;49.394;11.136;2024-03-17T15:57:14;14.80;25.50
3198;DHT22;1611;49.394;11.136;2024-03-17T15:59:40;14.80;26.30
3198;DHT22;1611;49.394;11.136;2024-03-17T16:02:08;14.90;26.30
3198;DHT22;1611;49.394;11.136;2024-03-17T16:04:37;14.90;25.70